createdAt,value
2023-01-08T00:00:03.589Z,9.711851
2023-01-08T00:01:03.572Z,9.711798
2023-01-08T00:02:03.561Z,9.711742
2023-01-08T00:03:03.658Z,9.711764
2023-01-08T00:04:03.638Z,9.711851
2023-01-08T00:05:03.535Z,9.711686
2023-01-08T00:06:03.630Z,9.711698
2023-01-08T00:07:03.509Z,9.711702
2023-01-08T00:08:04.244Z,9.711602
2023-01-08T00:09:03.516Z,9.711672
2023-01-08T00:10:03.509Z,9.711789
2023-01-08T00:11:03.501Z,9.711625
2023-01-08T00:12:03.475Z,9.711619
2023-01-08T00:13:03.478Z,9.711640
2023-01-08T00:14:03.759Z,9.711641
2023-01-08T00:15:03.456Z,9.711626
2023-01-08T00:16:03.470Z,9.711623
2023-01-08T00:17:03.434Z,9.711730
2023-01-08T00:18:05.436Z,9.711613
2023-01-08T00:19:03.465Z,9.711633
2023-01-08T00:20:03.414Z,9.711653
2023-01-08T00:21:03.399Z,9.711614
2023-01-08T00:22:03.506Z,9.711649
2023-01-08T00:23:03.383Z,9.711654
2023-01-08T00:24:03.392Z,9.711575
2023-01-08T00:25:03.371Z,9.711599
2023-01-08T00:30:54.060Z,9.711756
2023-01-08T00:31:54.033Z,9.711738
2023-01-08T00:32:54.009Z,9.711613
2023-01-08T00:33:54.010Z,9.711581
2023-01-08T00:34:53.998Z,9.711649
2023-01-08T00:35:53.987Z,9.711722
2023-01-08T00:36:53.986Z,9.711611
2023-01-08T00:37:53.970Z,9.711734
2023-01-08T00:38:53.976Z,9.711750
2023-01-08T00:39:53.967Z,9.711733
2023-01-08T00:40:53.951Z,9.711571
2023-01-08T00:41:53.928Z,9.711877
2023-01-08T00:42:53.922Z,9.711968
2023-01-08T00:43:53.918Z,9.711975
2023-01-08T00:44:53.914Z,9.711966
2023-01-08T00:45:54.158Z,9.711554
2023-01-08T00:46:53.895Z,9.711637
2023-01-08T00:47:54.827Z,9.711691
2023-01-08T00:48:53.876Z,9.711699
2023-01-08T00:49:53.875Z,9.711658
2023-01-08T00:50:53.879Z,9.712567
2023-01-08T00:51:53.867Z,9.712281
2023-01-08T00:52:53.877Z,9.712015
2023-01-08T00:53:53.938Z,9.711758
2023-01-08T00:54:53.838Z,9.711502
2023-01-08T00:55:53.835Z,9.711855
2023-01-08T00:56:53.816Z,9.711829
2023-01-08T00:57:53.823Z,9.711946
2023-01-08T00:58:53.799Z,9.711770
2023-01-08T00:59:53.791Z,9.711451
2023-01-08T01:00:53.930Z,9.711603
2023-01-08T01:01:53.942Z,9.711591
2023-01-08T01:02:53.771Z,9.711485
2023-01-08T01:03:53.807Z,9.711727
2023-01-08T01:04:53.755Z,9.711648
2023-01-08T01:05:53.757Z,9.711529
2023-01-08T01:06:53.741Z,9.711470
2023-01-08T01:29:01.708Z,9.712157
2023-01-08T01:30:01.728Z,9.712156
2023-01-08T01:31:01.740Z,9.711711
2023-01-08T01:32:01.705Z,9.711694
2023-01-08T01:33:01.684Z,9.711728
2023-01-08T01:34:01.706Z,9.711692
2023-01-08T01:35:01.696Z,9.711703
2023-01-08T01:36:01.667Z,9.711698
2023-01-08T01:41:10.064Z,9.711581
2023-01-08T01:42:10.049Z,9.711628
2023-01-08T01:43:10.040Z,9.711502
2023-01-08T01:44:10.043Z,9.711720
2023-01-08T01:45:10.043Z,9.711478
2023-01-08T01:46:10.072Z,9.711581
2023-01-08T01:47:10.026Z,9.711596
2023-01-08T01:48:10.022Z,9.711417
2023-01-08T01:49:09.992Z,9.711555
2023-01-08T01:50:09.997Z,9.711648
2023-01-08T01:51:09.982Z,9.711661
2023-01-08T01:52:09.976Z,9.711839
2023-01-08T01:53:09.962Z,9.711727
2023-01-08T01:54:09.961Z,9.711741
2023-01-08T01:55:09.955Z,9.711702
2023-01-08T01:56:10.057Z,9.711675
2023-01-08T01:57:09.943Z,9.711674
2023-01-08T01:58:09.937Z,9.711690
2023-01-08T01:59:09.915Z,9.711615
2023-01-08T02:00:09.903Z,9.711705
2023-01-08T02:01:10.010Z,9.711650
2023-01-08T02:02:10.053Z,9.711671
2023-01-08T02:03:09.888Z,9.711684
2023-01-08T02:04:09.903Z,9.711671
2023-01-08T02:05:09.869Z,9.711680
2023-01-08T02:06:09.861Z,9.711641
2023-01-08T02:07:09.876Z,9.711673
2023-01-08T02:08:09.848Z,9.711708
2023-01-08T02:09:09.847Z,9.711691
2023-01-08T02:10:09.834Z,9.711623
2023-01-08T02:11:09.824Z,9.711662
2023-01-08T02:12:09.955Z,9.711660
2023-01-08T02:13:09.812Z,9.711700
2023-01-08T02:14:09.807Z,9.711697
2023-01-08T02:15:09.817Z,9.711695
2023-01-08T02:16:09.797Z,9.711673
2023-01-08T02:17:09.788Z,9.711667
2023-01-08T02:18:09.781Z,9.711644
2023-01-08T02:19:09.764Z,9.711632
2023-01-08T02:20:09.769Z,9.711652
2023-01-08T02:21:09.757Z,9.711722
2023-01-08T02:22:09.754Z,9.711634
2023-01-08T02:23:09.741Z,9.711710
2023-01-08T02:24:09.727Z,9.711756
2023-01-08T02:25:09.719Z,9.711715
2023-01-08T02:26:09.714Z,9.711644
2023-01-08T02:27:09.706Z,9.711617
2023-01-08T02:28:09.703Z,9.711678
2023-01-08T02:29:09.706Z,9.711752
2023-01-08T02:30:09.683Z,9.711745
2023-01-08T02:31:09.726Z,9.711659
2023-01-08T02:32:09.669Z,9.711814
2023-01-08T02:33:09.668Z,9.711977
2023-01-08T02:34:09.656Z,9.711874
2023-01-08T02:35:09.648Z,9.711884
2023-01-08T02:36:09.630Z,9.711804
2023-01-08T02:37:09.624Z,9.711658
2023-01-08T02:38:12.466Z,9.711686
2023-01-08T02:39:09.614Z,9.711757
2023-01-08T02:40:09.602Z,9.711887
2023-01-08T02:41:09.592Z,9.711890
2023-01-08T02:42:09.582Z,9.711888
2023-01-08T02:43:09.578Z,9.711649
2023-01-08T02:44:09.671Z,9.711762
2023-01-08T02:45:09.570Z,9.711856
2023-01-08T02:46:10.624Z,9.711830
2023-01-08T02:56:17.955Z,9.711524
2023-01-08T02:57:17.933Z,9.711432
2023-01-08T02:58:17.922Z,9.711287
2023-01-08T02:59:18.029Z,9.711238
2023-01-08T03:00:17.905Z,9.711322
2023-01-08T03:01:18.017Z,9.711358
2023-01-08T03:02:17.965Z,9.711272
2023-01-08T03:03:17.890Z,9.711339
2023-01-08T03:04:18.941Z,9.711508
2023-01-08T03:05:17.868Z,9.711474
2023-01-08T03:06:17.852Z,9.711664
2023-01-08T03:07:17.843Z,9.711698
2023-01-08T03:08:17.836Z,9.711788
2023-01-08T03:09:17.832Z,9.711742
2023-01-08T03:10:17.831Z,9.711754
2023-01-08T03:11:17.818Z,9.711814
2023-01-08T03:12:17.817Z,9.711567
2023-01-08T03:13:17.794Z,9.711760
2023-01-08T03:14:17.787Z,9.711653
2023-01-08T03:15:17.894Z,9.711690
2023-01-08T03:16:17.816Z,9.711537
2023-01-08T03:17:17.780Z,9.711712
2023-01-08T03:18:17.753Z,9.711510
2023-01-08T03:19:17.757Z,9.711719
2023-01-08T03:20:17.747Z,9.711848
2023-01-08T03:21:18.350Z,9.711869
2023-01-08T03:22:18.330Z,9.711691
2023-01-08T03:23:17.716Z,9.711672
2023-01-08T03:24:17.712Z,9.711730
2023-01-08T03:25:17.710Z,9.712065
2023-01-08T03:26:17.751Z,9.711859
2023-01-08T03:27:17.688Z,9.711701
2023-01-08T03:28:17.678Z,9.711432
2023-01-08T03:29:18.273Z,9.711435
2023-01-08T03:30:17.770Z,9.711692
2023-01-08T03:31:17.770Z,9.711637
2023-01-08T03:32:17.647Z,9.711539
2023-01-08T03:33:17.648Z,9.711540
2023-01-08T03:34:17.634Z,9.711440
2023-01-08T03:35:18.641Z,9.711462
2023-01-08T03:36:17.621Z,9.711543
2023-01-08T03:37:17.609Z,9.711797
2023-01-08T03:38:17.611Z,9.711706
2023-01-08T03:39:17.593Z,9.711795
2023-01-08T03:40:17.608Z,9.711671
2023-01-08T03:41:17.575Z,9.711671
2023-01-08T03:42:17.568Z,9.711751
2023-01-08T03:43:17.577Z,9.711746
2023-01-08T03:44:17.552Z,9.711738
2023-01-08T03:45:17.548Z,9.711628
2023-01-08T03:46:17.570Z,9.711567
2023-01-08T03:47:17.631Z,9.711757
2023-01-08T03:48:17.517Z,9.711926
2023-01-08T03:49:17.510Z,9.711803
2023-01-08T03:50:17.509Z,9.711692
2023-01-08T03:51:17.493Z,9.711565
2023-01-08T03:52:17.487Z,9.711619
2023-01-08T03:53:17.490Z,9.711665
2023-01-08T03:54:17.531Z,9.711604
2023-01-08T03:55:17.476Z,9.711706
2023-01-08T03:56:17.670Z,9.711778
2023-01-08T03:57:17.526Z,9.711781
2023-01-08T03:58:17.452Z,9.711725
2023-01-08T03:59:17.531Z,9.711782
2023-01-08T04:00:18.213Z,9.711702
2023-01-08T04:01:18.533Z,9.711684
2023-01-08T04:02:17.619Z,9.711693
2023-01-08T04:03:17.521Z,9.711683
2023-01-08T04:04:17.564Z,9.711702
2023-01-08T04:05:18.396Z,9.711660
2023-01-08T04:06:17.380Z,9.711577
2023-01-08T04:07:17.379Z,9.711642
2023-01-08T04:08:17.380Z,9.711743
2023-01-08T04:09:17.359Z,9.711719
2023-01-08T04:10:17.395Z,9.711660
2023-01-08T04:11:17.351Z,9.711675
2023-01-08T04:12:17.350Z,9.711726
2023-01-08T04:13:17.355Z,9.711576
2023-01-08T04:14:17.338Z,9.711612
2023-01-08T04:15:17.323Z,9.711600
2023-01-08T04:16:17.385Z,9.711617
2023-01-08T04:17:17.310Z,9.711599
2023-01-08T04:18:17.289Z,9.711602
2023-01-08T04:19:17.378Z,9.711683
2023-01-08T04:20:17.280Z,9.711666
2023-01-08T04:21:17.286Z,9.711625
2023-01-08T04:22:17.270Z,9.711638
2023-01-08T04:23:17.299Z,9.711824
2023-01-08T04:24:17.254Z,9.711825
2023-01-08T04:25:17.238Z,9.711655
2023-01-08T04:26:17.228Z,9.711678
2023-01-08T04:27:17.383Z,9.711627
2023-01-08T04:28:17.473Z,9.711637
2023-01-08T04:29:17.236Z,9.711632
2023-01-08T04:30:17.467Z,9.711569
2023-01-08T04:31:17.230Z,9.711638
2023-01-08T04:32:17.561Z,9.711597
2023-01-08T04:33:17.351Z,9.711509
2023-01-08T04:34:17.317Z,9.711616
2023-01-08T04:35:17.674Z,9.711514
2023-01-08T04:36:17.173Z,9.711619
2023-01-08T04:37:17.138Z,9.711594
2023-01-08T04:38:17.135Z,9.711722
2023-01-08T04:39:17.128Z,9.711626
2023-01-08T04:40:17.121Z,9.711664
2023-01-08T04:41:17.126Z,9.711775
2023-01-08T04:42:17.101Z,9.711740
2023-01-08T04:43:17.093Z,9.711727
2023-01-08T04:44:17.086Z,9.711802
2023-01-08T04:45:17.086Z,9.711749
2023-01-08T04:46:17.099Z,9.711879
2023-01-08T04:47:17.066Z,9.711860
2023-01-08T04:48:17.050Z,9.711832
2023-01-08T04:49:17.054Z,9.711616
2023-01-08T04:50:17.041Z,9.711536
2023-01-08T04:51:17.125Z,9.711572
2023-01-08T04:52:17.031Z,9.711615
2023-01-08T04:53:17.018Z,9.711636
2023-01-08T04:54:17.016Z,9.711682
2023-01-08T04:55:17.007Z,9.711762
2023-01-08T04:56:16.995Z,9.711636
2023-01-08T04:57:16.988Z,9.711687
2023-01-08T04:58:16.979Z,9.711922
2023-01-08T04:59:16.969Z,9.711662
2023-01-08T05:00:16.968Z,9.711596
2023-01-08T05:01:17.107Z,9.711744
2023-01-08T05:02:17.148Z,9.711804
2023-01-08T05:03:17.849Z,9.711808
2023-01-08T05:04:17.939Z,9.711757
2023-01-08T05:05:16.929Z,9.711718
2023-01-08T05:06:16.964Z,9.711890
2023-01-08T05:07:16.916Z,9.711750
2023-01-08T05:08:16.904Z,9.711937
2023-01-08T05:09:17.244Z,9.711694
2023-01-08T05:10:16.890Z,9.711640
2023-01-08T05:11:16.875Z,9.711676
2023-01-08T05:12:16.869Z,9.711655
2023-01-08T05:13:16.854Z,9.711456
2023-01-08T05:14:16.895Z,9.711246
2023-01-08T05:15:16.993Z,9.711442
2023-01-08T05:16:17.732Z,9.711291
2023-01-08T05:17:16.832Z,9.711658
2023-01-08T05:18:16.826Z,9.711498
2023-01-08T05:19:16.817Z,9.711426
2023-01-08T05:20:18.961Z,9.711493
2023-01-08T05:21:16.813Z,9.711580
2023-01-08T05:22:16.791Z,9.711420
2023-01-08T05:23:16.873Z,9.711596
2023-01-08T05:24:16.775Z,9.711438
2023-01-08T05:25:16.757Z,9.711476
2023-01-08T05:26:16.767Z,9.711478
2023-01-08T05:27:16.756Z,9.711326
2023-01-08T05:28:16.750Z,9.711336
2023-01-08T05:29:16.729Z,9.711344
2023-01-08T05:30:16.723Z,9.711315
2023-01-08T05:31:16.814Z,9.711214
2023-01-08T05:32:16.713Z,9.711232
2023-01-08T05:33:16.704Z,9.711302
2023-01-08T05:34:16.695Z,9.711349
2023-01-08T05:35:16.694Z,9.711283
2023-01-08T05:36:16.679Z,9.711262
2023-01-08T05:37:16.673Z,9.711243
2023-01-08T05:38:16.669Z,9.711499
2023-01-08T05:39:16.759Z,9.711425
2023-01-08T05:40:16.648Z,9.711473
2023-01-08T05:41:16.638Z,9.711452
2023-01-08T05:42:16.639Z,9.711419
2023-01-08T05:43:16.631Z,9.711473
2023-01-08T05:44:16.611Z,9.711417
2023-01-08T05:45:16.619Z,9.711426
2023-01-08T05:46:16.620Z,9.711518
2023-01-08T05:47:16.600Z,9.711486
2023-01-08T05:48:16.594Z,9.711503
2023-01-08T05:49:17.053Z,9.711506
2023-01-08T05:50:18.565Z,9.711528
2023-01-08T05:51:17.309Z,9.711605
2023-01-08T05:52:16.567Z,9.711589
2023-01-08T05:53:16.552Z,9.711594
2023-01-08T05:54:16.521Z,9.711623
2023-01-08T05:55:17.622Z,9.711524
2023-01-08T05:56:16.513Z,9.711532
2023-01-08T05:57:16.514Z,9.711526
2023-01-08T05:58:16.513Z,9.711564
2023-01-08T05:59:16.494Z,9.711578
2023-01-08T06:00:16.485Z,9.711605
2023-01-08T06:01:16.593Z,9.711568
2023-01-08T06:02:16.470Z,9.711580
2023-01-08T06:03:16.460Z,9.711616
2023-01-08T06:04:16.494Z,9.711670
2023-01-08T06:05:16.444Z,9.711676
2023-01-08T06:06:16.443Z,9.711659
2023-01-08T06:07:16.441Z,9.711631
2023-01-08T06:08:16.416Z,9.711585
2023-01-08T06:09:16.414Z,9.711611
2023-01-08T06:10:16.436Z,9.711650
2023-01-08T06:11:16.497Z,9.711636
2023-01-08T06:12:16.386Z,9.711679
2023-01-08T06:13:16.391Z,9.711703
2023-01-08T06:14:16.372Z,9.711602
2023-01-08T06:15:16.420Z,9.711636
2023-01-08T06:16:16.397Z,9.711710
2023-01-08T06:17:16.376Z,9.711748
2023-01-08T06:18:16.342Z,9.711823
2023-01-08T06:19:16.348Z,9.711872
2023-01-08T06:20:16.324Z,9.711893
2023-01-08T06:21:16.321Z,9.711924
2023-01-08T06:22:16.309Z,9.711926
2023-01-08T06:23:17.309Z,9.711847
2023-01-08T06:24:16.307Z,9.711817
2023-01-08T06:25:16.290Z,9.711833
2023-01-08T06:26:16.274Z,9.711834
2023-01-08T06:27:16.387Z,9.711989
2023-01-08T06:28:16.272Z,9.712480
2023-01-08T06:29:16.255Z,9.712508
2023-01-08T06:30:16.246Z,9.712582
2023-01-08T06:31:16.320Z,9.712680
2023-01-08T06:32:16.230Z,9.712484
2023-01-08T06:33:16.363Z,9.712480
2023-01-08T06:34:16.210Z,9.712548
2023-01-08T06:35:16.274Z,9.712493
2023-01-08T06:36:16.193Z,9.712578
2023-01-08T06:37:16.188Z,9.712606
2023-01-08T06:38:16.194Z,9.712612
2023-01-08T06:39:16.182Z,9.712543
2023-01-08T06:40:16.168Z,9.712519
2023-01-08T06:41:16.160Z,9.712420
2023-01-08T06:42:16.164Z,9.712149
2023-01-08T06:43:16.255Z,9.711889
2023-01-08T06:44:16.154Z,9.711880
2023-01-08T06:45:16.140Z,9.711792
2023-01-08T06:46:16.131Z,9.711780
2023-01-08T06:47:16.124Z,9.711803
2023-01-08T06:48:16.119Z,9.711742
2023-01-08T06:49:16.108Z,9.711800
2023-01-08T06:50:16.109Z,9.711799
2023-01-08T06:51:16.083Z,9.711764
2023-01-08T06:52:16.078Z,9.711791
2023-01-08T06:53:16.064Z,9.711717
2023-01-08T06:54:16.066Z,9.711759
2023-01-08T06:55:16.062Z,9.711848
2023-01-08T06:56:16.041Z,9.711808
2023-01-08T06:57:16.040Z,9.711860
2023-01-08T06:58:16.069Z,9.711755
2023-01-08T06:59:16.118Z,9.711665
2023-01-08T07:00:16.005Z,9.711705
2023-01-08T07:01:16.298Z,9.711651
2023-01-08T07:02:16.277Z,9.711727
2023-01-08T07:03:16.978Z,9.711647
2023-01-08T07:04:15.977Z,9.711614
2023-01-08T07:05:15.974Z,9.711626
2023-01-08T07:06:15.971Z,9.711647
2023-01-08T07:07:15.960Z,9.711642
2023-01-08T07:08:15.957Z,9.711653
2023-01-08T07:09:15.937Z,9.711626
2023-01-08T07:10:17.001Z,9.711643
2023-01-08T07:11:15.941Z,9.711596
2023-01-08T07:12:15.919Z,9.711616
2023-01-08T07:13:15.898Z,9.711618
2023-01-08T07:14:15.915Z,9.711618
2023-01-08T07:15:16.006Z,9.711657
2023-01-08T07:16:16.900Z,9.711606
2023-01-08T07:17:16.827Z,9.711628
2023-01-08T07:18:15.863Z,9.711625
2023-01-08T07:19:15.858Z,9.711608
2023-01-08T07:20:15.840Z,9.711539
2023-01-08T07:21:15.834Z,9.711674
2023-01-08T07:22:15.830Z,9.711629
2023-01-08T07:23:15.833Z,9.711602
2023-01-08T07:24:15.818Z,9.711575
2023-01-08T07:25:15.809Z,9.711519
2023-01-08T07:26:15.804Z,9.711563
2023-01-08T07:27:15.788Z,9.711638
2023-01-08T07:28:15.785Z,9.711585
2023-01-08T07:29:15.771Z,9.711681
2023-01-08T07:30:28.727Z,9.711450
2023-01-08T07:31:17.901Z,9.711526
2023-01-08T07:32:15.760Z,9.711629
2023-01-08T07:33:15.740Z,9.711565
2023-01-08T07:34:15.733Z,9.711455
2023-01-08T07:35:15.730Z,9.711555
2023-01-08T07:36:15.729Z,9.711749
2023-01-08T07:37:15.710Z,9.711642
2023-01-08T07:38:15.703Z,9.711569
2023-01-08T07:39:15.733Z,9.711551
2023-01-08T07:40:15.692Z,9.711589
2023-01-08T07:41:15.688Z,9.711717
2023-01-08T07:42:16.336Z,9.711664
2023-01-08T07:43:16.335Z,9.711670
2023-01-08T07:44:15.689Z,9.711672
2023-01-08T07:45:15.685Z,9.711596
2023-01-08T07:46:15.652Z,9.711571
2023-01-08T07:47:15.737Z,9.711597
2023-01-08T07:48:15.631Z,9.711575
2023-01-08T07:49:15.615Z,9.711447
2023-01-08T07:50:15.664Z,9.711509
2023-01-08T07:51:15.604Z,9.711499
2023-01-08T07:52:16.608Z,9.711543
2023-01-08T07:53:15.586Z,9.711513
2023-01-08T07:54:15.590Z,9.711500
2023-01-08T07:55:15.568Z,9.711633
2023-01-08T07:56:15.568Z,9.711790
2023-01-08T07:57:15.558Z,9.711609
2023-01-08T07:58:15.548Z,9.711527
2023-01-08T07:59:15.537Z,9.711496
2023-01-08T08:00:15.536Z,9.711645
2023-01-08T08:01:15.584Z,9.711712
2023-01-08T08:02:15.664Z,9.711945
2023-01-08T08:03:15.697Z,9.711731
2023-01-08T08:04:15.527Z,9.711696
2023-01-08T08:05:16.341Z,9.711592
2023-01-08T08:06:15.490Z,9.711811
2023-01-08T08:07:15.480Z,9.711731
2023-01-08T08:08:15.475Z,9.711722
2023-01-08T08:09:15.459Z,9.711698
2023-01-08T08:10:15.456Z,9.711554
2023-01-08T08:11:15.450Z,9.711473
2023-01-08T08:12:15.478Z,9.711587
2023-01-08T08:13:15.429Z,9.711652
2023-01-08T08:14:15.428Z,9.711598
2023-01-08T08:15:15.424Z,9.711694
2023-01-08T08:16:15.487Z,9.711719
2023-01-08T08:17:15.392Z,9.712029
2023-01-08T08:18:16.394Z,9.711886
2023-01-08T08:19:15.497Z,9.711655
2023-01-08T08:20:15.377Z,9.711696
2023-01-08T08:21:15.379Z,9.711671
2023-01-08T08:22:15.382Z,9.711759
2023-01-08T08:23:15.352Z,9.711825
2023-01-08T08:24:15.352Z,9.711777
2023-01-08T08:25:15.466Z,9.711691
2023-01-08T08:26:15.335Z,9.711694
2023-01-08T08:27:15.320Z,9.711753
2023-01-08T08:28:15.334Z,9.711535
2023-01-08T08:29:15.313Z,9.711561
2023-01-08T08:30:15.314Z,9.711817
2023-01-08T08:31:15.326Z,9.711987
2023-01-08T08:32:15.280Z,9.711632
2023-01-08T08:33:15.277Z,9.711464
2023-01-08T08:34:15.277Z,9.711671
2023-01-08T08:35:15.434Z,9.711713
2023-01-08T08:36:15.845Z,9.711759
2023-01-08T08:37:15.250Z,9.711726
2023-01-08T08:38:15.238Z,9.711659
2023-01-08T08:39:15.225Z,9.711659
2023-01-08T08:40:15.218Z,9.711678
2023-01-08T08:41:15.220Z,9.711652
2023-01-08T08:42:15.209Z,9.711641
2023-01-08T08:43:15.195Z,9.711648
2023-01-08T08:44:15.182Z,9.711692
2023-01-08T08:45:15.182Z,9.711674
2023-01-08T08:46:15.183Z,9.711678
2023-01-08T08:47:16.183Z,9.711734
2023-01-08T08:48:15.157Z,9.711740
2023-01-08T08:49:15.151Z,9.711754
2023-01-08T08:50:15.148Z,9.711709
2023-01-08T08:51:15.222Z,9.711699
2023-01-08T08:52:15.122Z,9.711705
2023-01-08T08:53:15.118Z,9.711754
2023-01-08T08:54:16.138Z,9.711691
2023-01-08T08:55:15.106Z,9.711688
2023-01-08T08:56:15.093Z,9.711722
2023-01-08T08:57:15.092Z,9.711712
2023-01-08T08:58:15.081Z,9.711748
2023-01-08T08:59:15.063Z,9.711671
2023-01-08T09:00:15.064Z,9.711666
2023-01-08T09:01:15.182Z,9.711692
2023-01-08T09:02:15.273Z,9.711691
2023-01-08T09:03:15.187Z,9.711713
2023-01-08T09:04:15.036Z,9.711704
2023-01-08T09:05:15.015Z,9.711730
2023-01-08T09:06:15.034Z,9.711668
2023-01-08T09:07:16.027Z,9.711702
2023-01-08T09:08:14.988Z,9.711667
2023-01-08T09:09:14.980Z,9.711685
2023-01-08T09:10:14.979Z,9.711734
2023-01-08T09:11:14.967Z,9.711735
2023-01-08T09:12:14.973Z,9.711656
2023-01-08T09:13:14.948Z,9.711694
2023-01-08T09:14:14.943Z,9.711714
2023-01-08T09:15:14.936Z,9.711773
2023-01-08T09:16:14.987Z,9.711773
2023-01-08T09:17:14.915Z,9.711745
2023-01-08T09:18:16.080Z,9.711752
2023-01-08T09:19:15.901Z,9.711714
2023-01-08T09:20:14.898Z,9.711788
2023-01-08T09:21:15.444Z,9.711950
2023-01-08T09:22:14.905Z,9.711791
2023-01-08T09:23:14.972Z,9.711718
2023-01-08T09:24:14.878Z,9.711794
2023-01-08T09:25:14.854Z,9.711732
2023-01-08T09:26:14.864Z,9.711859
2023-01-08T09:27:15.365Z,9.711827
2023-01-08T09:28:14.827Z,9.711924
2023-01-08T09:29:14.826Z,9.711919
2023-01-08T09:30:14.834Z,9.711819
2023-01-08T09:31:14.845Z,9.711839
2023-01-08T09:32:14.812Z,9.711760
2023-01-08T09:33:14.804Z,9.711863
2023-01-08T09:34:15.433Z,9.711738
2023-01-08T09:35:14.776Z,9.711765
2023-01-08T09:36:14.771Z,9.711733
2023-01-08T09:37:14.762Z,9.711682
2023-01-08T09:38:14.765Z,9.711658
2023-01-08T09:39:14.843Z,9.711731
2023-01-08T09:40:14.740Z,9.711725
2023-01-08T09:41:14.729Z,9.711712
2023-01-08T09:42:14.733Z,9.711649
2023-01-08T09:43:14.711Z,9.711736
2023-01-08T09:44:14.706Z,9.711727
2023-01-08T09:45:14.705Z,9.711716
2023-01-08T09:46:14.700Z,9.711749
2023-01-08T09:47:14.694Z,9.711747
2023-01-08T09:48:14.675Z,9.711687
2023-01-08T09:49:14.696Z,9.711711
2023-01-08T09:50:14.660Z,9.711740
2023-01-08T09:51:14.657Z,9.711665
2023-01-08T09:52:14.659Z,9.711645
2023-01-08T09:53:14.641Z,9.711663
2023-01-08T09:54:14.631Z,9.711623
2023-01-08T09:55:14.737Z,9.711640
2023-01-08T09:56:14.615Z,9.711649
2023-01-08T09:57:14.615Z,9.711666
2023-01-08T09:58:14.602Z,9.711685
2023-01-08T09:59:14.638Z,9.711697
2023-01-08T10:00:14.592Z,9.711733
2023-01-08T10:01:15.156Z,9.711721
2023-01-08T10:02:14.721Z,9.711661
2023-01-08T10:03:14.560Z,9.711679
2023-01-08T10:04:14.562Z,9.711683
2023-01-08T10:05:14.567Z,9.711669
2023-01-08T10:06:14.556Z,9.711685
2023-01-08T10:07:14.551Z,9.711687
2023-01-08T10:08:14.522Z,9.711678
2023-01-08T10:09:14.545Z,9.711647
2023-01-08T10:10:14.511Z,9.711616
2023-01-08T10:11:14.603Z,9.711635
2023-01-08T10:12:14.494Z,9.711688
2023-01-08T10:13:14.483Z,9.711681
2023-01-08T10:14:14.482Z,9.711676
2023-01-08T10:15:14.469Z,9.711674
2023-01-08T10:16:14.487Z,9.711719
2023-01-08T10:17:14.456Z,9.711683
2023-01-08T10:18:14.471Z,9.711739
2023-01-08T10:19:14.440Z,9.711680
2023-01-08T10:20:14.437Z,9.711647
2023-01-08T10:21:14.438Z,9.711654
2023-01-08T10:22:14.430Z,9.711649
2023-01-08T10:23:14.412Z,9.711600
2023-01-08T10:24:14.401Z,9.711675
2023-01-08T10:25:14.403Z,9.711719
2023-01-08T10:26:14.394Z,9.711749
2023-01-08T10:27:14.488Z,9.711697
2023-01-08T10:28:14.369Z,9.711692
2023-01-08T10:29:14.374Z,9.711680
2023-01-08T10:30:14.366Z,9.711682
2023-01-08T10:31:14.361Z,9.711668
2023-01-08T10:32:14.341Z,9.711761
2023-01-08T10:33:14.338Z,9.711788
2023-01-08T10:34:14.327Z,9.711744
2023-01-08T10:35:14.314Z,9.711763
2023-01-08T10:36:14.337Z,9.711824
2023-01-08T10:37:14.326Z,9.711681
2023-01-08T10:38:14.297Z,9.711723
2023-01-08T10:39:14.286Z,9.711790
2023-01-08T10:40:14.874Z,9.711782
2023-01-08T10:41:14.266Z,9.711756
2023-01-08T10:42:14.255Z,9.711738
2023-01-08T10:43:14.252Z,9.711882
2023-01-08T10:44:14.243Z,9.711842
2023-01-08T10:45:14.286Z,9.711710
2023-01-08T10:46:14.240Z,9.711598
2023-01-08T10:47:14.224Z,9.711484
2023-01-08T10:48:14.203Z,9.711885
2023-01-08T10:49:14.206Z,9.711480
2023-01-08T10:50:14.195Z,9.711725
2023-01-08T10:51:14.188Z,9.711882
2023-01-08T10:52:14.177Z,9.711710
2023-01-08T10:53:14.169Z,9.711596
2023-01-08T10:54:14.181Z,9.711873
2023-01-08T10:55:14.159Z,9.712016
2023-01-08T10:56:14.150Z,9.711851
2023-01-08T10:57:14.137Z,9.711719
2023-01-08T10:58:14.134Z,9.711670
2023-01-08T10:59:14.140Z,9.711837
2023-01-08T11:00:14.117Z,9.711811
2023-01-08T11:01:14.216Z,9.711697
2023-01-08T11:02:14.197Z,9.711889
2023-01-08T11:03:14.098Z,9.711889
2023-01-08T11:04:14.086Z,9.711852
2023-01-08T11:05:14.076Z,9.711804
2023-01-08T11:06:14.073Z,9.711834
2023-01-08T11:07:14.063Z,9.711615
2023-01-08T11:08:14.052Z,9.711804
2023-01-08T11:13:21.890Z,9.711560
2023-01-08T11:14:21.886Z,9.711617
2023-01-08T11:15:21.873Z,9.711695
2023-01-08T11:16:21.893Z,9.711707
2023-01-08T11:17:21.853Z,9.711684
2023-01-08T11:18:21.856Z,9.711667
2023-01-08T11:19:21.844Z,9.711653
2023-01-08T11:20:21.833Z,9.711603
2023-01-08T11:21:21.830Z,9.711579
2023-01-08T11:22:21.812Z,9.711596
2023-01-08T11:23:21.808Z,9.711609
2023-01-08T11:24:21.794Z,9.711615
2023-01-08T11:25:21.808Z,9.711589
2023-01-08T11:26:21.787Z,9.711617
2023-01-08T11:27:21.767Z,9.711627
2023-01-08T11:28:21.757Z,9.711619
2023-01-08T11:29:21.792Z,9.711667
2023-01-08T11:30:21.829Z,9.711656
2023-01-08T11:31:21.789Z,9.711708
2023-01-08T11:32:21.739Z,9.711627
2023-01-08T11:33:21.722Z,9.711667
2023-01-08T11:34:21.709Z,9.711615
2023-01-08T11:35:21.706Z,9.711639
2023-01-08T11:36:21.693Z,9.711657
2023-01-08T11:37:21.692Z,9.711648
2023-01-08T11:38:21.675Z,9.711656
2023-01-08T11:39:21.685Z,9.711637
2023-01-08T11:40:21.666Z,9.711715
2023-01-08T11:41:21.663Z,9.711664
2023-01-08T11:42:21.651Z,9.711704
2023-01-08T11:43:21.642Z,9.711692
2023-01-08T11:44:21.633Z,9.711744
2023-01-08T11:45:22.690Z,9.711602
2023-01-08T11:46:21.623Z,9.711570
2023-01-08T11:47:21.617Z,9.711582
2023-01-08T11:48:21.604Z,9.711604
2023-01-08T11:49:21.599Z,9.711560
2023-01-08T11:50:21.588Z,9.711579
2023-01-08T11:51:21.599Z,9.711699
2023-01-08T11:52:21.578Z,9.711584
2023-01-08T11:53:21.571Z,9.711691
2023-01-08T11:54:21.560Z,9.711731
2023-01-08T11:55:21.549Z,9.711663
2023-01-08T11:56:21.551Z,9.711580
2023-01-08T11:57:21.528Z,9.711496
2023-01-08T11:58:21.534Z,9.711583
2023-01-08T11:59:21.520Z,9.711567
2023-01-08T12:00:21.535Z,9.711795
2023-01-08T12:01:21.542Z,9.711699
2023-01-08T12:02:21.683Z,9.711933
2023-01-08T12:03:21.530Z,9.711956
2023-01-08T12:04:21.484Z,9.711737
2023-01-08T12:05:21.467Z,9.711724
2023-01-08T12:06:21.458Z,9.711794
2023-01-08T12:07:21.449Z,9.711756
2023-01-08T12:08:21.458Z,9.711534
2023-01-08T12:09:21.441Z,9.711453
2023-01-08T12:10:21.470Z,9.711676
2023-01-08T12:11:21.425Z,9.711884
2023-01-08T12:12:21.407Z,9.712487
2023-01-08T12:13:21.409Z,9.712153
2023-01-08T12:14:22.273Z,9.712008
2023-01-08T12:15:21.403Z,9.711943
2023-01-08T12:16:21.442Z,9.711873
2023-01-08T12:17:23.514Z,9.711694
2023-01-08T12:18:21.366Z,9.711738
2023-01-08T12:19:21.354Z,9.711855
2023-01-08T12:20:21.445Z,9.711636
2023-01-08T12:21:21.353Z,9.711744
2023-01-08T12:22:21.325Z,9.711693
2023-01-08T12:23:21.329Z,9.711571
2023-01-08T12:24:21.313Z,9.711405
2023-01-08T12:25:21.299Z,9.711410
2023-01-08T12:26:22.774Z,9.711492
2023-01-08T12:27:25.967Z,9.711599